sensor_id;sensor_type;location;lat;lon;timestamp;P1;durP1;ratioP1;P2;durP2;ratioP2
21330;SDS011;10824;51.632;4.950;2022-09-29T00:01:05;4.63;;;3.17;;
21330;SDS011;10824;51.632;4.950;2022-09-29T00:03:32;4.22;;;2.35;;
21330;SDS011;10824;51.632;4.950;2022-09-29T00:05:59;4.43;;;2.33;;
21330;SDS011;10824;51.632;4.950;2022-09-29T00:08:27;4.20;;;2.38;;
21330;SDS011;10824;51.632;4.950;2022-09-29T00:10:55;3.63;;;2.50;;
21330;SDS011;10824;51.632;4.950;2022-09-29T00:13:23;3.90;;;2.67;;
21330;SDS011;10824;51.632;4.950;2022-09-29T00:15:54;4.55;;;3.05;;
21330;SDS011;10824;51.632;4.950;2022-09-29T00:18:25;4.15;;;2.95;;
21330;SDS011;10824;51.632;4.950;2022-09-29T00:20:57;3.13;;;2.83;;
21330;SDS011;10824;51.632;4.950;2022-09-29T00:23:35;5.43;;;2.60;;
21330;SDS011;10824;51.632;4.950;2022-09-29T00:26:04;4.28;;;2.72;;
21330;SDS011;10824;51.632;4.950;2022-09-29T00:28:34;8.82;;;3.05;;
21330;SDS011;10824;51.632;4.950;2022-09-29T00:31:02;9.27;;;3.25;;
21330;SDS011;10824;51.632;4.950;2022-09-29T00:33:32;5.78;;;3.78;;
21330;SDS011;10824;51.632;4.950;2022-09-29T00:36:02;8.55;;;3.40;;
21330;SDS011;10824;51.632;4.950;2022-09-29T00:38:33;5.00;;;3.30;;
21330;SDS011;10824;51.632;4.950;2022-09-29T00:41:01;6.15;;;3.00;;
21330;SDS011;10824;51.632;4.950;2022-09-29T00:46:28;8.50;;;3.40;;
21330;SDS011;10824;51.632;4.950;2022-09-29T00:48:56;4.70;;;3.35;;
21330;SDS011;10824;51.632;4.950;2022-09-29T00:51:29;6.68;;;3.28;;
21330;SDS011;10824;51.632;4.950;2022-09-29T00:54:00;5.43;;;3.88;;
21330;SDS011;10824;51.632;4.950;2022-09-29T00:56:31;4.55;;;3.40;;
21330;SDS011;10824;51.632;4.950;2022-09-29T00:59:04;5.70;;;3.65;;
21330;SDS011;10824;51.632;4.950;2022-09-29T01:01:35;6.20;;;3.55;;
21330;SDS011;10824;51.632;4.950;2022-09-29T01:04:03;4.47;;;3.50;;
21330;SDS011;10824;51.632;4.950;2022-09-29T01:06:38;4.60;;;3.10;;
21330;SDS011;10824;51.632;4.950;2022-09-29T01:09:15;5.63;;;3.47;;
21330;SDS011;10824;51.632;4.950;2022-09-29T01:11:43;4.93;;;3.10;;
21330;SDS011;10824;51.632;4.950;2022-09-29T01:14:12;7.85;;;4.43;;
21330;SDS011;10824;51.632;4.950;2022-09-29T01:16:39;5.75;;;3.13;;
21330;SDS011;10824;51.632;4.950;2022-09-29T01:19:12;4.65;;;3.20;;
21330;SDS011;10824;51.632;4.950;2022-09-29T01:22:00;5.28;;;2.78;;
21330;SDS011;10824;51.632;4.950;2022-09-29T01:27:14;5.75;;;2.72;;
21330;SDS011;10824;51.632;4.950;2022-09-29T01:36:02;5.85;;;2.60;;
21330;SDS011;10824;51.632;4.950;2022-09-29T01:38:46;3.58;;;2.53;;
21330;SDS011;10824;51.632;4.950;2022-09-29T01:44:22;4.95;;;2.78;;
21330;SDS011;10824;51.632;4.950;2022-09-29T01:49:33;7.18;;;3.22;;
21330;SDS011;10824;51.632;4.950;2022-09-29T01:52:21;3.47;;;2.20;;
21330;SDS011;10824;51.632;4.950;2022-09-29T01:54:58;3.10;;;2.20;;
21330;SDS011;10824;51.632;4.950;2022-09-29T01:57:29;4.80;;;2.63;;
21330;SDS011;10824;51.632;4.950;2022-09-29T02:00:03;3.92;;;2.28;;
21330;SDS011;10824;51.632;4.950;2022-09-29T02:05:14;4.88;;;2.38;;
21330;SDS011;10824;51.632;4.950;2022-09-29T02:07:45;3.15;;;2.78;;
21330;SDS011;10824;51.632;4.950;2022-09-29T02:10:18;4.00;;;2.13;;
21330;SDS011;10824;51.632;4.950;2022-09-29T02:12:49;5.55;;;2.67;;
21330;SDS011;10824;51.632;4.950;2022-09-29T02:15:20;3.55;;;2.70;;
21330;SDS011;10824;51.632;4.950;2022-09-29T02:17:52;3.53;;;2.58;;
21330;SDS011;10824;51.632;4.950;2022-09-29T02:20:23;8.50;;;3.43;;
21330;SDS011;10824;51.632;4.950;2022-09-29T02:22:50;4.30;;;2.42;;
21330;SDS011;10824;51.632;4.950;2022-09-29T02:25:18;5.35;;;2.28;;
21330;SDS011;10824;51.632;4.950;2022-09-29T02:27:46;3.10;;;2.22;;
21330;SDS011;10824;51.632;4.950;2022-09-29T02:30:13;3.58;;;2.42;;
21330;SDS011;10824;51.632;4.950;2022-09-29T02:32:42;4.47;;;2.42;;
21330;SDS011;10824;51.632;4.950;2022-09-29T02:35:11;2.58;;;2.03;;
21330;SDS011;10824;51.632;4.950;2022-09-29T02:45:48;4.03;;;2.50;;
21330;SDS011;10824;51.632;4.950;2022-09-29T03:01:51;7.28;;;3.67;;
21330;SDS011;10824;51.632;4.950;2022-09-29T03:04:22;8.48;;;3.08;;
21330;SDS011;10824;51.632;4.950;2022-09-29T03:06:50;5.50;;;2.67;;
21330;SDS011;10824;51.632;4.950;2022-09-29T03:09:18;5.15;;;2.95;;
21330;SDS011;10824;51.632;4.950;2022-09-29T03:11:45;4.45;;;2.78;;
21330;SDS011;10824;51.632;4.950;2022-09-29T03:14:12;3.00;;;2.35;;
21330;SDS011;10824;51.632;4.950;2022-09-29T03:16:39;5.05;;;3.33;;
21330;SDS011;10824;51.632;4.950;2022-09-29T03:19:06;6.65;;;3.13;;
21330;SDS011;10824;51.632;4.950;2022-09-29T03:21:33;4.72;;;3.15;;
21330;SDS011;10824;51.632;4.950;2022-09-29T03:24:01;5.85;;;3.17;;
21330;SDS011;10824;51.632;4.950;2022-09-29T03:26:28;6.30;;;2.80;;
21330;SDS011;10824;51.632;4.950;2022-09-29T03:28:55;7.97;;;3.53;;
21330;SDS011;10824;51.632;4.950;2022-09-29T03:31:22;5.95;;;2.80;;
21330;SDS011;10824;51.632;4.950;2022-09-29T03:33:49;4.60;;;2.47;;
21330;SDS011;10824;51.632;4.950;2022-09-29T03:36:17;3.30;;;2.33;;
21330;SDS011;10824;51.632;4.950;2022-09-29T03:38:44;4.28;;;2.80;;
21330;SDS011;10824;51.632;4.950;2022-09-29T03:41:13;5.95;;;3.35;;
21330;SDS011;10824;51.632;4.950;2022-09-29T03:43:41;4.20;;;2.90;;
21330;SDS011;10824;51.632;4.950;2022-09-29T03:46:08;8.43;;;2.83;;
21330;SDS011;10824;51.632;4.950;2022-09-29T03:48:35;2.38;;;1.83;;
21330;SDS011;10824;51.632;4.950;2022-09-29T03:51:02;5.13;;;3.55;;
21330;SDS011;10824;51.632;4.950;2022-09-29T03:53:33;3.92;;;2.53;;
21330;SDS011;10824;51.632;4.950;2022-09-29T03:56:01;5.93;;;2.50;;
21330;SDS011;10824;51.632;4.950;2022-09-29T03:58:29;4.43;;;2.88;;
21330;SDS011;10824;51.632;4.950;2022-09-29T04:00:56;6.88;;;3.03;;
21330;SDS011;10824;51.632;4.950;2022-09-29T04:03:23;5.60;;;3.63;;
21330;SDS011;10824;51.632;4.950;2022-09-29T04:05:50;6.10;;;2.92;;
21330;SDS011;10824;51.632;4.950;2022-09-29T04:08:17;3.75;;;2.50;;
21330;SDS011;10824;51.632;4.950;2022-09-29T04:10:45;4.55;;;2.45;;
21330;SDS011;10824;51.632;4.950;2022-09-29T04:13:13;4.65;;;2.83;;
21330;SDS011;10824;51.632;4.950;2022-09-29T04:15:45;5.13;;;2.58;;
21330;SDS011;10824;51.632;4.950;2022-09-29T04:18:12;5.32;;;3.38;;
21330;SDS011;10824;51.632;4.950;2022-09-29T04:20:41;7.38;;;3.30;;
21330;SDS011;10824;51.632;4.950;2022-09-29T04:23:08;5.03;;;3.65;;
21330;SDS011;10824;51.632;4.950;2022-09-29T04:25:35;3.45;;;2.40;;
21330;SDS011;10824;51.632;4.950;2022-09-29T04:28:02;7.97;;;3.50;;
21330;SDS011;10824;51.632;4.950;2022-09-29T04:30:29;4.75;;;2.65;;
21330;SDS011;10824;51.632;4.950;2022-09-29T04:32:56;4.93;;;2.50;;
21330;SDS011;10824;51.632;4.950;2022-09-29T04:35:23;4.85;;;2.70;;
21330;SDS011;10824;51.632;4.950;2022-09-29T04:37:53;4.72;;;2.58;;
21330;SDS011;10824;51.632;4.950;2022-09-29T04:40:23;3.90;;;2.65;;
21330;SDS011;10824;51.632;4.950;2022-09-29T04:42:51;4.53;;;3.08;;
21330;SDS011;10824;51.632;4.950;2022-09-29T04:45:18;6.60;;;3.22;;
21330;SDS011;10824;51.632;4.950;2022-09-29T04:47:45;5.80;;;3.13;;
21330;SDS011;10824;51.632;4.950;2022-09-29T04:50:12;7.82;;;2.58;;
21330;SDS011;10824;51.632;4.950;2022-09-29T04:52:40;4.07;;;2.38;;
21330;SDS011;10824;51.632;4.950;2022-09-29T04:55:08;4.40;;;3.03;;
21330;SDS011;10824;51.632;4.950;2022-09-29T04:57:39;4.55;;;2.88;;
21330;SDS011;10824;51.632;4.950;2022-09-29T05:00:09;6.78;;;3.67;;
21330;SDS011;10824;51.632;4.950;2022-09-29T05:02:39;6.53;;;3.60;;
21330;SDS011;10824;51.632;4.950;2022-09-29T05:05:10;5.90;;;3.20;;
21330;SDS011;10824;51.632;4.950;2022-09-29T05:07:38;6.18;;;2.58;;
21330;SDS011;10824;51.632;4.950;2022-09-29T05:10:07;7.32;;;2.80;;
21330;SDS011;10824;51.632;4.950;2022-09-29T05:12:35;5.93;;;2.83;;
21330;SDS011;10824;51.632;4.950;2022-09-29T05:15:02;3.70;;;2.38;;
21330;SDS011;10824;51.632;4.950;2022-09-29T05:17:31;7.13;;;3.20;;
21330;SDS011;10824;51.632;4.950;2022-09-29T05:19:59;4.28;;;2.53;;
21330;SDS011;10824;51.632;4.950;2022-09-29T05:22:26;7.35;;;2.97;;
21330;SDS011;10824;51.632;4.950;2022-09-29T05:24:52;3.22;;;2.25;;
21330;SDS011;10824;51.632;4.950;2022-09-29T05:27:19;5.20;;;2.90;;
21330;SDS011;10824;51.632;4.950;2022-09-29T05:29:48;14.30;;;6.53;;
21330;SDS011;10824;51.632;4.950;2022-09-29T05:32:15;5.55;;;3.47;;
21330;SDS011;10824;51.632;4.950;2022-09-29T05:34:42;6.03;;;3.20;;
21330;SDS011;10824;51.632;4.950;2022-09-29T05:37:10;7.82;;;2.65;;
21330;SDS011;10824;51.632;4.950;2022-09-29T05:39:37;8.20;;;4.05;;
21330;SDS011;10824;51.632;4.950;2022-09-29T05:42:05;5.20;;;3.45;;
21330;SDS011;10824;51.632;4.950;2022-09-29T05:44:37;5.45;;;3.05;;
21330;SDS011;10824;51.632;4.950;2022-09-29T05:47:04;4.18;;;3.63;;
21330;SDS011;10824;51.632;4.950;2022-09-29T05:49:31;4.80;;;3.22;;
21330;SDS011;10824;51.632;4.950;2022-09-29T05:51:58;3.75;;;2.78;;
21330;SDS011;10824;51.632;4.950;2022-09-29T05:54:26;5.93;;;3.38;;
21330;SDS011;10824;51.632;4.950;2022-09-29T05:56:53;4.20;;;2.67;;
21330;SDS011;10824;51.632;4.950;2022-09-29T05:59:21;5.15;;;3.25;;
21330;SDS011;10824;51.632;4.950;2022-09-29T06:01:48;12.02;;;3.72;;
21330;SDS011;10824;51.632;4.950;2022-09-29T06:04:16;6.00;;;3.05;;
21330;SDS011;10824;51.632;4.950;2022-09-29T06:06:43;11.52;;;3.88;;
21330;SDS011;10824;51.632;4.950;2022-09-29T06:09:10;5.57;;;3.08;;
21330;SDS011;10824;51.632;4.950;2022-09-29T06:11:37;5.75;;;3.40;;
21330;SDS011;10824;51.632;4.950;2022-09-29T06:14:04;7.03;;;3.75;;
21330;SDS011;10824;51.632;4.950;2022-09-29T06:16:31;5.72;;;3.42;;
21330;SDS011;10824;51.632;4.950;2022-09-29T06:18:59;6.43;;;3.40;;
21330;SDS011;10824;51.632;4.950;2022-09-29T06:21:28;5.82;;;3.85;;
21330;SDS011;10824;51.632;4.950;2022-09-29T06:23:56;8.88;;;3.30;;
21330;SDS011;10824;51.632;4.950;2022-09-29T06:26:24;9.05;;;4.30;;
21330;SDS011;10824;51.632;4.950;2022-09-29T06:28:52;10.02;;;5.25;;
21330;SDS011;10824;51.632;4.950;2022-09-29T06:31:21;6.53;;;4.60;;
21330;SDS011;10824;51.632;4.950;2022-09-29T06:33:50;5.78;;;4.07;;
21330;SDS011;10824;51.632;4.950;2022-09-29T06:36:18;6.88;;;3.63;;
21330;SDS011;10824;51.632;4.950;2022-09-29T06:39:07;6.32;;;4.25;;
21330;SDS011;10824;51.632;4.950;2022-09-29T06:41:35;10.18;;;5.22;;
21330;SDS011;10824;51.632;4.950;2022-09-29T06:44:05;11.38;;;4.40;;
21330;SDS011;10824;51.632;4.950;2022-09-29T06:46:32;8.32;;;4.00;;
21330;SDS011;10824;51.632;4.950;2022-09-29T06:48:59;9.40;;;4.03;;
21330;SDS011;10824;51.632;4.950;2022-09-29T06:51:26;8.65;;;3.83;;
21330;SDS011;10824;51.632;4.950;2022-09-29T06:54:06;8.43;;;3.70;;
21330;SDS011;10824;51.632;4.950;2022-09-29T06:56:38;6.05;;;3.78;;
21330;SDS011;10824;51.632;4.950;2022-09-29T06:59:05;6.78;;;4.30;;
21330;SDS011;10824;51.632;4.950;2022-09-29T07:01:33;5.55;;;4.22;;
21330;SDS011;10824;51.632;4.950;2022-09-29T07:04:00;5.20;;;2.88;;
21330;SDS011;10824;51.632;4.950;2022-09-29T07:06:28;7.15;;;4.20;;
21330;SDS011;10824;51.632;4.950;2022-09-29T07:08:56;22.15;;;10.20;;
21330;SDS011;10824;51.632;4.950;2022-09-29T07:11:24;11.80;;;4.93;;
21330;SDS011;10824;51.632;4.950;2022-09-29T07:13:54;6.45;;;3.92;;
21330;SDS011;10824;51.632;4.950;2022-09-29T07:16:21;7.20;;;3.67;;
21330;SDS011;10824;51.632;4.950;2022-09-29T07:18:49;7.20;;;4.30;;
21330;SDS011;10824;51.632;4.950;2022-09-29T07:21:17;6.57;;;2.80;;
21330;SDS011;10824;51.632;4.950;2022-09-29T07:23:46;6.60;;;3.70;;
21330;SDS011;10824;51.632;4.950;2022-09-29T07:26:15;5.78;;;3.97;;
21330;SDS011;10824;51.632;4.950;2022-09-29T07:28:43;6.95;;;4.28;;
21330;SDS011;10824;51.632;4.950;2022-09-29T07:31:12;7.65;;;3.75;;
21330;SDS011;10824;51.632;4.950;2022-09-29T07:33:42;6.53;;;3.35;;
21330;SDS011;10824;51.632;4.950;2022-09-29T07:36:10;6.57;;;3.60;;
21330;SDS011;10824;51.632;4.950;2022-09-29T07:38:38;6.47;;;4.43;;
21330;SDS011;10824;51.632;4.950;2022-09-29T07:41:06;9.75;;;4.57;;
21330;SDS011;10824;51.632;4.950;2022-09-29T07:43:36;7.70;;;3.58;;
21330;SDS011;10824;51.632;4.950;2022-09-29T07:46:04;7.68;;;4.90;;
21330;SDS011;10824;51.632;4.950;2022-09-29T07:48:32;12.68;;;5.45;;
21330;SDS011;10824;51.632;4.950;2022-09-29T07:51:00;6.50;;;4.35;;
21330;SDS011;10824;51.632;4.950;2022-09-29T07:53:31;7.05;;;4.05;;
21330;SDS011;10824;51.632;4.950;2022-09-29T07:56:02;10.55;;;4.63;;
21330;SDS011;10824;51.632;4.950;2022-09-29T07:58:33;8.57;;;3.83;;
21330;SDS011;10824;51.632;4.950;2022-09-29T08:01:01;9.13;;;4.60;;
21330;SDS011;10824;51.632;4.950;2022-09-29T08:03:32;7.93;;;3.83;;
21330;SDS011;10824;51.632;4.950;2022-09-29T08:05:59;7.55;;;4.53;;
21330;SDS011;10824;51.632;4.950;2022-09-29T08:08:26;10.98;;;5.22;;
21330;SDS011;10824;51.632;4.950;2022-09-29T08:11:09;8.48;;;3.97;;
21330;SDS011;10824;51.632;4.950;2022-09-29T08:13:53;9.77;;;6.28;;
21330;SDS011;10824;51.632;4.950;2022-09-29T08:16:20;12.52;;;5.72;;
21330;SDS011;10824;51.632;4.950;2022-09-29T08:18:47;6.63;;;4.03;;
21330;SDS011;10824;51.632;4.950;2022-09-29T08:21:15;6.88;;;4.03;;
21330;SDS011;10824;51.632;4.950;2022-09-29T08:23:42;6.90;;;3.88;;
21330;SDS011;10824;51.632;4.950;2022-09-29T08:26:14;8.45;;;3.35;;
21330;SDS011;10824;51.632;4.950;2022-09-29T08:28:44;11.73;;;4.80;;
21330;SDS011;10824;51.632;4.950;2022-09-29T08:31:19;6.50;;;3.45;;
21330;SDS011;10824;51.632;4.950;2022-09-29T08:33:50;9.30;;;4.20;;
21330;SDS011;10824;51.632;4.950;2022-09-29T08:36:18;8.75;;;3.85;;
21330;SDS011;10824;51.632;4.950;2022-09-29T08:38:46;5.05;;;3.45;;
21330;SDS011;10824;51.632;4.950;2022-09-29T08:43:45;10.05;;;4.32;;
21330;SDS011;10824;51.632;4.950;2022-09-29T08:46:25;8.32;;;5.18;;
21330;SDS011;10824;51.632;4.950;2022-09-29T08:49:04;5.97;;;4.57;;
21330;SDS011;10824;51.632;4.950;2022-09-29T08:51:51;7.82;;;4.22;;
21330;SDS011;10824;51.632;4.950;2022-09-29T08:54:33;9.30;;;4.78;;
21330;SDS011;10824;51.632;4.950;2022-09-29T08:57:05;11.30;;;3.90;;
21330;SDS011;10824;51.632;4.950;2022-09-29T08:59:45;7.97;;;4.55;;
21330;SDS011;10824;51.632;4.950;2022-09-29T09:11:01;6.07;;;3.00;;
21330;SDS011;10824;51.632;4.950;2022-09-29T09:13:40;7.35;;;3.78;;
21330;SDS011;10824;51.632;4.950;2022-09-29T09:16:47;11.63;;;3.97;;
21330;SDS011;10824;51.632;4.950;2022-09-29T09:22:21;6.63;;;3.67;;
21330;SDS011;10824;51.632;4.950;2022-09-29T09:28:05;8.15;;;4.05;;
21330;SDS011;10824;51.632;4.950;2022-09-29T09:30:41;6.63;;;4.38;;
21330;SDS011;10824;51.632;4.950;2022-09-29T09:33:16;8.10;;;5.10;;
21330;SDS011;10824;51.632;4.950;2022-09-29T09:35:59;6.78;;;3.67;;
21330;SDS011;10824;51.632;4.950;2022-09-29T09:38:36;6.15;;;3.50;;
21330;SDS011;10824;51.632;4.950;2022-09-29T09:41:13;8.32;;;3.60;;
21330;SDS011;10824;51.632;4.950;2022-09-29T09:43:44;6.07;;;3.05;;
21330;SDS011;10824;51.632;4.950;2022-09-29T09:46:23;10.95;;;3.00;;
21330;SDS011;10824;51.632;4.950;2022-09-29T09:49:22;7.13;;;3.10;;
21330;SDS011;10824;51.632;4.950;2022-09-29T09:52:02;6.32;;;3.38;;
21330;SDS011;10824;51.632;4.950;2022-09-29T09:54:35;4.55;;;2.85;;
21330;SDS011;10824;51.632;4.950;2022-09-29T10:02:22;4.33;;;3.00;;
21330;SDS011;10824;51.632;4.950;2022-09-29T10:04:50;5.55;;;3.25;;
21330;SDS011;10824;51.632;4.950;2022-09-29T10:07:19;5.18;;;2.70;;
21330;SDS011;10824;51.632;4.950;2022-09-29T10:09:49;4.18;;;2.72;;
21330;SDS011;10824;51.632;4.950;2022-09-29T10:12:18;6.50;;;3.50;;
21330;SDS011;10824;51.632;4.950;2022-09-29T10:15:35;6.80;;;3.03;;
21330;SDS011;10824;51.632;4.950;2022-09-29T10:17:49;6.40;;;2.60;;
21330;SDS011;10824;51.632;4.950;2022-09-29T10:20:35;5.30;;;2.50;;
21330;SDS011;10824;51.632;4.950;2022-09-29T10:23:17;7.57;;;2.55;;
21330;SDS011;10824;51.632;4.950;2022-09-29T10:25:56;7.55;;;3.33;;
21330;SDS011;10824;51.632;4.950;2022-09-29T10:28:49;5.63;;;3.40;;
21330;SDS011;10824;51.632;4.950;2022-09-29T10:31:30;9.15;;;4.63;;
21330;SDS011;10824;51.632;4.950;2022-09-29T10:36:51;4.88;;;2.45;;
21330;SDS011;10824;51.632;4.950;2022-09-29T10:39:40;4.45;;;2.20;;
21330;SDS011;10824;51.632;4.950;2022-09-29T10:42:51;2.78;;;1.27;;
21330;SDS011;10824;51.632;4.950;2022-09-29T10:47:47;3.17;;;1.75;;
21330;SDS011;10824;51.632;4.950;2022-09-29T10:50:30;2.63;;;1.70;;
21330;SDS011;10824;51.632;4.950;2022-09-29T10:53:15;2.58;;;1.83;;
21330;SDS011;10824;51.632;4.950;2022-09-29T10:55:59;2.40;;;1.90;;
21330;SDS011;10824;51.632;4.950;2022-09-29T10:58:33;6.55;;;3.50;;
21330;SDS011;10824;51.632;4.950;2022-09-29T11:01:22;5.28;;;2.85;;
21330;SDS011;10824;51.632;4.950;2022-09-29T11:04:00;3.33;;;1.75;;
21330;SDS011;10824;51.632;4.950;2022-09-29T11:06:35;5.03;;;1.73;;
21330;SDS011;10824;51.632;4.950;2022-09-29T11:17:20;15.60;;;2.35;;
21330;SDS011;10824;51.632;4.950;2022-09-29T11:19:51;2.55;;;1.70;;
21330;SDS011;10824;51.632;4.950;2022-09-29T11:28:43;2.38;;;1.50;;
21330;SDS011;10824;51.632;4.950;2022-09-29T11:40:32;2.42;;;1.02;;
21330;SDS011;10824;51.632;4.950;2022-09-29T11:45:37;2.03;;;1.67;;
21330;SDS011;10824;51.632;4.950;2022-09-29T11:53:51;2.30;;;1.42;;
21330;SDS011;10824;51.632;4.950;2022-09-29T12:04:59;1.25;;;0.88;;
21330;SDS011;10824;51.632;4.950;2022-09-29T12:10:26;2.45;;;1.52;;
21330;SDS011;10824;51.632;4.950;2022-09-29T12:19:07;3.05;;;1.23;;
21330;SDS011;10824;51.632;4.950;2022-09-29T12:21:17;1.63;;;1.23;;
21330;SDS011;10824;51.632;4.950;2022-09-29T12:23:55;1.88;;;1.30;;
21330;SDS011;10824;51.632;4.950;2022-09-29T12:26:26;1.45;;;1.33;;
21330;SDS011;10824;51.632;4.950;2022-09-29T12:28:56;2.08;;;1.52;;
21330;SDS011;10824;51.632;4.950;2022-09-29T12:34:31;3.00;;;1.27;;
21330;SDS011;10824;51.632;4.950;2022-09-29T12:37:13;2.35;;;1.42;;
21330;SDS011;10824;51.632;4.950;2022-09-29T12:40:05;4.60;;;1.77;;
21330;SDS011;10824;51.632;4.950;2022-09-29T12:45:41;3.45;;;1.27;;
21330;SDS011;10824;51.632;4.950;2022-09-29T12:48:16;1.33;;;1.23;;
21330;SDS011;10824;51.632;4.950;2022-09-29T12:53:48;3.67;;;1.70;;
21330;SDS011;10824;51.632;4.950;2022-09-29T12:56:34;6.65;;;1.70;;
21330;SDS011;10824;51.632;4.950;2022-09-29T12:59:08;1.75;;;1.40;;
21330;SDS011;10824;51.632;4.950;2022-09-29T13:02:02;1.90;;;1.20;;
21330;SDS011;10824;51.632;4.950;2022-09-29T13:05:20;1.98;;;1.30;;
21330;SDS011;10824;51.632;4.950;2022-09-29T13:07:55;0.98;;;0.90;;
21330;SDS011;10824;51.632;4.950;2022-09-29T13:29:20;1.63;;;1.38;;
21330;SDS011;10824;51.632;4.950;2022-09-29T13:31:50;1.88;;;1.70;;
21330;SDS011;10824;51.632;4.950;2022-09-29T13:34:29;2.75;;;1.42;;
21330;SDS011;10824;51.632;4.950;2022-09-29T13:37:06;3.20;;;1.10;;
21330;SDS011;10824;51.632;4.950;2022-09-29T13:39:35;1.33;;;1.00;;
21330;SDS011;10824;51.632;4.950;2022-09-29T13:47:47;1.65;;;1.15;;
21330;SDS011;10824;51.632;4.950;2022-09-29T13:50:47;5.30;;;2.37;;
21330;SDS011;10824;51.632;4.950;2022-09-29T13:53:36;6.80;;;4.07;;
21330;SDS011;10824;51.632;4.950;2022-09-29T13:56:16;6.45;;;3.30;;
21330;SDS011;10824;51.632;4.950;2022-09-29T14:01:34;1.77;;;1.00;;
21330;SDS011;10824;51.632;4.950;2022-09-29T14:07:06;0.90;;;0.70;;
21330;SDS011;10824;51.632;4.950;2022-09-29T14:09:50;1.10;;;0.93;;
21330;SDS011;10824;51.632;4.950;2022-09-29T14:12:21;1.58;;;0.95;;
21330;SDS011;10824;51.632;4.950;2022-09-29T14:14:56;2.00;;;1.52;;
21330;SDS011;10824;51.632;4.950;2022-09-29T14:17:30;0.75;;;0.50;;
21330;SDS011;10824;51.632;4.950;2022-09-29T14:22:57;1.00;;;0.90;;
21330;SDS011;10824;51.632;4.950;2022-09-29T14:28:13;1.83;;;1.30;;
21330;SDS011;10824;51.632;4.950;2022-09-29T14:30:46;3.55;;;1.13;;
21330;SDS011;10824;51.632;4.950;2022-09-29T14:33:28;2.40;;;1.20;;
21330;SDS011;10824;51.632;4.950;2022-09-29T14:36:06;2.13;;;1.00;;
21330;SDS011;10824;51.632;4.950;2022-09-29T14:38:48;1.65;;;1.10;;
21330;SDS011;10824;51.632;4.950;2022-09-29T14:41:57;3.97;;;1.05;;
21330;SDS011;10824;51.632;4.950;2022-09-29T14:44:28;3.05;;;0.95;;
21330;SDS011;10824;51.632;4.950;2022-09-29T14:47:39;4.13;;;1.15;;
21330;SDS011;10824;51.632;4.950;2022-09-29T14:50:48;1.50;;;0.90;;
21330;SDS011;10824;51.632;4.950;2022-09-29T14:53:50;1.52;;;0.70;;
21330;SDS011;10824;51.632;4.950;2022-09-29T14:56:30;1.50;;;0.70;;
21330;SDS011;10824;51.632;4.950;2022-09-29T14:59:17;1.00;;;0.90;;
21330;SDS011;10824;51.632;4.950;2022-09-29T15:05:14;2.25;;;0.82;;
21330;SDS011;10824;51.632;4.950;2022-09-29T15:07:59;0.85;;;0.60;;
21330;SDS011;10824;51.632;4.950;2022-09-29T15:10:41;3.25;;;0.63;;
21330;SDS011;10824;51.632;4.950;2022-09-29T15:15:41;1.30;;;0.63;;
21330;SDS011;10824;51.632;4.950;2022-09-29T15:24:24;1.17;;;0.60;;
21330;SDS011;10824;51.632;4.950;2022-09-29T15:27:07;2.03;;;1.10;;
21330;SDS011;10824;51.632;4.950;2022-09-29T15:29:44;4.88;;;1.05;;
21330;SDS011;10824;51.632;4.950;2022-09-29T15:32:26;0.65;;;0.50;;
21330;SDS011;10824;51.632;4.950;2022-09-29T15:35:02;1.55;;;0.45;;
21330;SDS011;10824;51.632;4.950;2022-09-29T15:37:52;0.82;;;0.40;;
21330;SDS011;10824;51.632;4.950;2022-09-29T15:40:23;0.82;;;0.30;;
21330;SDS011;10824;51.632;4.950;2022-09-29T15:42:51;0.40;;;0.40;;
21330;SDS011;10824;51.632;4.950;2022-09-29T15:45:24;2.03;;;0.85;;
21330;SDS011;10824;51.632;4.950;2022-09-29T15:48:00;0.95;;;0.57;;
21330;SDS011;10824;51.632;4.950;2022-09-29T15:50:31;0.65;;;0.38;;
21330;SDS011;10824;51.632;4.950;2022-09-29T15:53:01;0.38;;;0.20;;
21330;SDS011;10824;51.632;4.950;2022-09-29T15:55:29;3.97;;;1.08;;
21330;SDS011;10824;51.632;4.950;2022-09-29T15:57:58;1.83;;;0.63;;
21330;SDS011;10824;51.632;4.950;2022-09-29T16:06:00;0.57;;;0.47;;
21330;SDS011;10824;51.632;4.950;2022-09-29T16:08:33;0.65;;;0.32;;
21330;SDS011;10824;51.632;4.950;2022-09-29T16:11:13;1.50;;;0.40;;
21330;SDS011;10824;51.632;4.950;2022-09-29T16:13:50;3.78;;;0.45;;
21330;SDS011;10824;51.632;4.950;2022-09-29T16:16:32;1.23;;;0.50;;
21330;SDS011;10824;51.632;4.950;2022-09-29T16:19:19;1.37;;;0.60;;
21330;SDS011;10824;51.632;4.950;2022-09-29T16:21:56;0.52;;;0.52;;
21330;SDS011;10824;51.632;4.950;2022-09-29T16:24:27;1.55;;;0.50;;
21330;SDS011;10824;51.632;4.950;2022-09-29T16:26:56;1.63;;;0.50;;
21330;SDS011;10824;51.632;4.950;2022-09-29T16:29:25;0.82;;;0.70;;
21330;SDS011;10824;51.632;4.950;2022-09-29T16:38:18;2.05;;;1.50;;
21330;SDS011;10824;51.632;4.950;2022-09-29T16:40:48;2.92;;;1.17;;
21330;SDS011;10824;51.632;4.950;2022-09-29T16:43:28;1.08;;;0.70;;
21330;SDS011;10824;51.632;4.950;2022-09-29T16:45:57;1.27;;;0.60;;
21330;SDS011;10824;51.632;4.950;2022-09-29T16:48:29;1.10;;;0.73;;
21330;SDS011;10824;51.632;4.950;2022-09-29T16:51:13;2.58;;;0.65;;
21330;SDS011;10824;51.632;4.950;2022-09-29T16:54:05;3.20;;;1.27;;
21330;SDS011;10824;51.632;4.950;2022-09-29T16:56:34;3.83;;;1.30;;
21330;SDS011;10824;51.632;4.950;2022-09-29T16:59:12;2.42;;;0.80;;
21330;SDS011;10824;51.632;4.950;2022-09-29T17:01:42;6.68;;;1.20;;
21330;SDS011;10824;51.632;4.950;2022-09-29T17:04:11;1.05;;;0.73;;
21330;SDS011;10824;51.632;4.950;2022-09-29T17:06:40;3.65;;;1.08;;
21330;SDS011;10824;51.632;4.950;2022-09-29T17:09:15;1.50;;;1.02;;
21330;SDS011;10824;51.632;4.950;2022-09-29T17:11:46;3.13;;;1.42;;
21330;SDS011;10824;51.632;4.950;2022-09-29T17:14:15;5.03;;;2.20;;
21330;SDS011;10824;51.632;4.950;2022-09-29T17:16:44;8.63;;;3.20;;
21330;SDS011;10824;51.632;4.950;2022-09-29T17:19:11;8.35;;;3.80;;
21330;SDS011;10824;51.632;4.950;2022-09-29T17:21:38;6.30;;;2.45;;
21330;SDS011;10824;51.632;4.950;2022-09-29T17:24:05;4.70;;;1.92;;
21330;SDS011;10824;51.632;4.950;2022-09-29T17:26:36;4.63;;;2.15;;
21330;SDS011;10824;51.632;4.950;2022-09-29T17:29:25;4.72;;;2.28;;
21330;SDS011;10824;51.632;4.950;2022-09-29T17:31:52;6.10;;;2.10;;
21330;SDS011;10824;51.632;4.950;2022-09-29T17:34:20;5.95;;;2.60;;
21330;SDS011;10824;51.632;4.950;2022-09-29T17:36:52;6.65;;;2.38;;
21330;SDS011;10824;51.632;4.950;2022-09-29T17:39:23;7.40;;;2.83;;
21330;SDS011;10824;51.632;4.950;2022-09-29T17:41:54;5.05;;;2.65;;
21330;SDS011;10824;51.632;4.950;2022-09-29T17:44:24;5.10;;;2.50;;
21330;SDS011;10824;51.632;4.950;2022-09-29T17:46:54;5.65;;;2.38;;
21330;SDS011;10824;51.632;4.950;2022-09-29T17:49:42;4.55;;;2.50;;
21330;SDS011;10824;51.632;4.950;2022-09-29T17:52:10;9.27;;;3.22;;
21330;SDS011;10824;51.632;4.950;2022-09-29T17:54:41;17.27;;;6.45;;
21330;SDS011;10824;51.632;4.950;2022-09-29T17:57:15;29.95;;;10.63;;
21330;SDS011;10824;51.632;4.950;2022-09-29T17:59:45;17.20;;;6.28;;
21330;SDS011;10824;51.632;4.950;2022-09-29T18:02:13;10.35;;;4.18;;
21330;SDS011;10824;51.632;4.950;2022-09-29T18:04:40;9.75;;;4.05;;
21330;SDS011;10824;51.632;4.950;2022-09-29T18:07:10;12.35;;;4.93;;
21330;SDS011;10824;51.632;4.950;2022-09-29T18:09:38;11.25;;;5.10;;
21330;SDS011;10824;51.632;4.950;2022-09-29T18:12:07;22.63;;;7.70;;
21330;SDS011;10824;51.632;4.950;2022-09-29T18:14:34;23.27;;;7.88;;
21330;SDS011;10824;51.632;4.950;2022-09-29T18:17:02;10.40;;;5.53;;
21330;SDS011;10824;51.632;4.950;2022-09-29T18:19:31;9.52;;;4.65;;
21330;SDS011;10824;51.632;4.950;2022-09-29T18:22:02;6.10;;;4.32;;
21330;SDS011;10824;51.632;4.950;2022-09-29T18:24:32;5.45;;;3.20;;
21330;SDS011;10824;51.632;4.950;2022-09-29T18:27:00;3.63;;;2.13;;